Time;durP1;ratioP1;P1;durP2;ratioP2;P2;SDS_P1;SDS_P2;PMS_P1;PMS_P2;Temp;Humidity;BMP_temperature;BMP_pressure;BME280_temperature;BME280_humidity;BME280_pressure;Samples;Min_cycle;Max_cycle;Signal;HPM_P1;HPM_P2
2023/12/10 00:00:42;;;;;;;11.15;2.10;;;10.10;96.00;;;;;;6100188;23;20452;-86
2023/12/10 00:03:07;;;;;;;7.40;2.03;;;10.10;95.80;;;;;;6101519;23;20005;-86
2023/12/10 00:05:33;;;;;;;10.13;1.80;;;10.10;95.70;;;;;;6101320;23;20009;-85
2023/12/10 00:07:59;;;;;;;7.20;1.42;;;10.10;95.60;;;;;;6125639;23;20002;-86
2023/12/10 00:10:24;;;;;;;7.32;1.55;;;10.10;95.60;;;;;;6101156;23;20002;-85
2023/12/10 00:12:50;;;;;;;9.00;1.55;;;10.10;95.60;;;;;;6100735;23;20006;-87
2023/12/10 00:15:16;;;;;;;8.45;2.20;;;10.10;95.40;;;;;;6100879;23;20010;-86
2023/12/10 00:17:41;;;;;;;8.85;1.70;;;10.10;95.40;;;;;;6101407;23;20026;-87
2023/12/10 00:20:08;;;;;;;6.60;1.80;;;10.10;95.10;;;;;;6101950;23;20014;-87
2023/12/10 00:22:33;;;;;;;7.28;1.63;;;10.20;95.30;;;;;;6102179;23;20041;-85
2023/12/10 00:24:59;;;;;;;8.45;1.80;;;10.20;95.20;;;;;;6101643;23;20005;-85
2023/12/10 00:27:25;;;;;;;7.55;1.65;;;10.20;95.00;;;;;;6097674;23;20928;-87
2023/12/10 00:29:50;;;;;;;9.18;1.95;;;10.20;95.00;;;;;;6095583;23;20038;-85
2023/12/10 00:32:16;;;;;;;8.30;1.90;;;10.20;94.90;;;;;;6097047;23;20014;-86
2023/12/10 00:34:41;;;;;;;7.45;1.83;;;10.20;94.80;;;;;;6099219;23;20010;-87
2023/12/10 00:37:07;;;;;;;7.18;1.73;;;10.20;94.70;;;;;;6096308;23;20014;-86
2023/12/10 00:39:37;;;;;;;11.65;1.77;;;10.20;94.80;;;;;;6098134;23;19999;-84
2023/12/10 00:42:03;;;;;;;9.65;2.30;;;10.10;94.70;;;;;;6097376;23;20373;-83
2023/12/10 00:44:29;;;;;;;7.18;1.85;;;10.10;94.80;;;;;;6097274;23;20329;-85
2023/12/10 00:46:55;;;;;;;5.80;1.73;;;10.00;95.00;;;;;;6098014;23;20006;-86
2023/12/10 00:49:20;;;;;;;9.50;1.95;;;10.00;95.20;;;;;;6098064;23;20624;-85
2023/12/10 00:51:46;;;;;;;11.88;2.33;;;9.90;95.40;;;;;;6100043;23;20067;-86
2023/12/10 00:54:12;;;;;;;11.13;1.80;;;9.90;95.60;;;;;;6099822;23;20058;-86
2023/12/10 00:56:37;;;;;;;14.45;2.45;;;9.90;96.00;;;;;;6098138;23;20064;-87
2023/12/10 00:59:03;;;;;;;9.05;1.98;;;9.80;95.90;;;;;;6093634;23;20010;-84
2023/12/10 01:01:29;;;;;;;9.82;2.15;;;9.80;96.10;;;;;;6095081;23;20003;-85
2023/12/10 01:03:54;;;;;;;13.23;1.90;;;9.70;96.20;;;;;;6102865;23;19986;-87
2023/12/10 01:06:20;;;;;;;13.40;2.17;;;9.70;96.40;;;;;;6113088;23;20006;-88
2023/12/10 01:08:45;;;;;;;7.97;1.73;;;9.60;96.50;;;;;;6102656;23;20014;-88
2023/12/10 01:11:11;;;;;;;11.93;2.22;;;9.60;96.70;;;;;;6105169;23;20026;-86
2023/12/10 01:13:37;;;;;;;9.57;2.10;;;9.60;96.90;;;;;;6102502;23;20010;-88
2023/12/10 01:16:04;;;;;;;7.05;2.17;;;9.60;97.10;;;;;;6099613;23;20018;-84
2023/12/10 01:18:32;;;;;;;6.88;1.83;;;9.60;97.20;;;;;;6095745;23;20029;-83
2023/12/10 01:20:58;;;;;;;8.57;2.13;;;9.60;97.30;;;;;;6096100;23;20154;-86
2023/12/10 01:23:24;;;;;;;7.13;1.75;;;9.60;97.30;;;;;;6096602;23;20002;-84
2023/12/10 01:25:49;;;;;;;10.90;2.20;;;9.60;97.40;;;;;;6097114;23;19999;-85
2023/12/10 01:28:15;;;;;;;10.20;2.42;;;9.50;97.40;;;;;;6096510;23;20433;-81
2023/12/10 01:30:41;;;;;;;15.68;2.28;;;9.60;97.60;;;;;;6097556;23;20033;-85
2023/12/10 01:33:06;;;;;;;8.30;1.80;;;9.60;97.50;;;;;;6097238;23;20014;-85
2023/12/10 01:35:32;;;;;;;6.78;1.52;;;9.60;97.60;;;;;;6103186;23;19994;-86
2023/12/10 01:37:58;;;;;;;8.32;2.00;;;9.60;97.60;;;;;;6113314;23;20002;-89
2023/12/10 01:40:23;;;;;;;12.30;2.25;;;9.60;97.60;;;;;;6110478;23;20002;-84
2023/12/10 01:42:49;;;;;;;7.40;1.70;;;9.60;97.60;;;;;;6106082;23;19998;-87
2023/12/10 01:45:18;;;;;;;8.75;1.80;;;9.50;97.60;;;;;;6100854;23;20408;-85
2023/12/10 01:47:46;;;;;;;7.53;1.95;;;9.50;97.70;;;;;;6102914;23;20012;-84
2023/12/10 01:50:12;;;;;;;5.75;1.52;;;9.50;97.80;;;;;;6102542;23;20006;-85
2023/12/10 01:52:44;;;;;;;8.15;1.80;;;9.50;97.80;;;;;;6104074;23;20010;-85
2023/12/10 01:55:11;;;;;;;11.85;2.50;;;9.50;97.70;;;;;;6104528;23;20066;-87
2023/12/10 01:57:37;;;;;;;12.07;2.15;;;9.50;97.70;;;;;;6103628;23;20148;-87
2023/12/10 02:00:06;;;;;;;15.23;2.00;;;9.50;97.80;;;;;;6106451;23;19999;-86
2023/12/10 02:02:32;;;;;;;7.82;1.40;;;9.40;97.70;;;;;;6105876;23;20463;-85
2023/12/10 02:05:05;;;;;;;5.40;1.70;;;9.50;97.80;;;;;;6105663;23;20029;-84
2023/12/10 02:07:31;;;;;;;6.45;1.88;;;9.40;97.80;;;;;;6105386;23;20037;-85
2023/12/10 02:09:57;;;;;;;7.05;1.63;;;9.30;97.70;;;;;;6107575;23;20002;-87
2023/12/10 02:12:23;;;;;;;5.47;1.30;;;9.40;97.80;;;;;;6107423;23;20093;-86
2023/12/10 02:14:49;;;;;;;9.60;1.63;;;9.40;97.90;;;;;;6107278;23;20443;-86
2023/12/10 02:17:14;;;;;;;6.07;1.25;;;9.40;97.90;;;;;;6106207;23;20067;-84
2023/12/10 02:19:40;;;;;;;8.70;1.90;;;9.40;98.00;;;;;;6106783;23;20377;-86
2023/12/10 02:22:07;;;;;;;6.93;1.67;;;9.40;97.90;;;;;;6107372;23;19999;-85
2023/12/10 02:24:49;;;;;;;8.77;1.50;;;9.40;97.90;;;;;;6107216;23;20002;-87
2023/12/10 02:27:15;;;;;;;10.70;2.42;;;9.40;97.90;;;;;;6107322;23;20014;-88
2023/12/10 02:29:41;;;;;;;6.82;1.45;;;9.40;97.80;;;;;;6106626;23;20017;-84
2023/12/10 02:32:07;;;;;;;8.93;1.73;;;9.40;97.80;;;;;;6104514;23;20054;-87
2023/12/10 02:34:33;;;;;;;13.93;2.00;;;9.30;98.00;;;;;;6107170;23;20006;-87
2023/12/10 02:36:59;;;;;;;9.50;2.00;;;9.30;97.70;;;;;;6106370;23;20088;-84
2023/12/10 02:39:24;;;;;;;6.78;1.45;;;9.30;97.70;;;;;;6107009;23;20005;-85
2023/12/10 02:41:50;;;;;;;7.20;1.63;;;9.30;97.60;;;;;;6106415;23;19998;-84
2023/12/10 02:44:15;;;;;;;8.70;1.63;;;9.30;97.60;;;;;;6105970;23;19999;-85
2023/12/10 02:46:47;;;;;;;7.57;1.70;;;9.30;97.80;;;;;;6108615;23;20017;-83
2023/12/10 02:49:12;;;;;;;6.07;1.65;;;9.30;97.80;;;;;;6105432;23;20002;-87
2023/12/10 02:51:38;;;;;;;8.00;1.92;;;9.30;97.80;;;;;;6107676;23;20006;-86
2023/12/10 02:54:04;;;;;;;8.27;1.52;;;9.30;97.90;;;;;;6107435;23;20033;-84
2023/12/10 02:56:29;;;;;;;7.97;1.60;;;9.30;97.80;;;;;;6107795;23;20017;-84
2023/12/10 02:58:55;;;;;;;7.10;1.77;;;9.20;97.90;;;;;;6104264;23;20010;-86
2023/12/10 03:01:20;;;;;;;7.75;1.60;;;9.20;97.90;;;;;;6108946;23;20472;-83
2023/12/10 03:03:46;;;;;;;7.75;1.48;;;9.20;97.90;;;;;;6105775;23;20085;-88
2023/12/10 03:06:12;;;;;;;10.18;1.98;;;9.20;97.90;;;;;;6104823;23;20090;-84
2023/12/10 03:08:37;;;;;;;8.63;2.00;;;9.20;98.00;;;;;;6105561;23;20263;-85
2023/12/10 03:11:03;;;;;;;10.00;1.90;;;9.20;98.10;;;;;;6106480;23;20010;-86
2023/12/10 03:13:29;;;;;;;11.15;2.10;;;9.20;98.10;;;;;;6107262;23;20035;-85
2023/12/10 03:15:54;;;;;;;10.75;1.90;;;9.20;98.10;;;;;;6107555;23;20014;-84
2023/12/10 03:18:20;;;;;;;12.90;2.00;;;9.10;98.10;;;;;;6105476;23;20392;-87
2023/12/10 03:20:46;;;;;;;12.32;2.05;;;9.10;98.20;;;;;;6108111;23;20591;-86
2023/12/10 03:23:11;;;;;;;8.00;1.60;;;9.10;98.10;;;;;;6107577;23;20070;-85
2023/12/10 03:25:37;;;;;;;7.35;1.50;;;9.10;98.10;;;;;;6106676;23;20006;-85
2023/12/10 03:28:03;;;;;;;9.55;1.90;;;9.10;98.10;;;;;;6107091;23;20046;-85
2023/12/10 03:30:28;;;;;;;9.57;1.70;;;9.10;98.20;;;;;;6106378;23;19990;-87
2023/12/10 03:32:54;;;;;;;9.55;1.70;;;9.10;98.20;;;;;;6107242;23;20504;-85
2023/12/10 03:35:19;;;;;;;3.42;1.20;;;9.10;98.20;;;;;;6106961;23;20002;-87
2023/12/10 03:37:45;;;;;;;7.30;2.05;;;9.10;98.30;;;;;;6106868;23;20597;-87
2023/12/10 03:40:11;;;;;;;7.63;1.35;;;9.10;98.30;;;;;;6106642;23;19998;-85
2023/12/10 03:42:37;;;;;;;8.82;2.05;;;9.10;98.30;;;;;;6108525;23;20054;-86
2023/12/10 03:45:03;;;;;;;7.95;1.60;;;9.10;98.40;;;;;;6108127;23;20037;-86
2023/12/10 03:47:28;;;;;;;7.90;1.58;;;9.10;98.30;;;;;;6105782;23;20009;-87
2023/12/10 03:49:54;;;;;;;11.52;2.13;;;9.10;98.30;;;;;;6105452;23;20087;-85
2023/12/10 03:52:19;;;;;;;9.65;1.77;;;9.10;98.30;;;;;;6107102;23;20002;-86
2023/12/10 03:54:45;;;;;;;8.57;1.90;;;9.10;98.40;;;;;;6106081;23;20006;-87
2023/12/10 03:57:11;;;;;;;7.72;1.55;;;9.10;98.40;;;;;;6106164;23;20058;-85
2023/12/10 03:59:36;;;;;;;7.80;1.80;;;9.10;98.40;;;;;;6106162;23;20010;-82
2023/12/10 04:02:02;;;;;;;7.15;1.75;;;9.10;98.50;;;;;;6105879;23;20062;-85
2023/12/10 04:04:31;;;;;;;9.05;1.95;;;9.20;98.80;;;;;;6105505;23;20073;-85
2023/12/10 04:06:56;;;;;;;7.40;1.95;;;9.20;98.50;;;;;;6100354;23;20010;-86
2023/12/10 04:09:22;;;;;;;6.85;1.42;;;9.20;98.40;;;;;;6102312;23;20010;-84
2023/12/10 04:11:48;;;;;;;11.02;2.08;;;9.20;98.40;;;;;;6102897;23;20033;-86
2023/12/10 04:14:14;;;;;;;11.27;1.83;;;9.20;98.40;;;;;;6102338;23;20067;-86
2023/12/10 04:16:40;;;;;;;13.88;2.35;;;9.20;98.30;;;;;;6101966;23;20002;-86
2023/12/10 04:19:05;;;;;;;8.43;1.60;;;9.20;98.30;;;;;;6101453;23;20002;-87
2023/12/10 04:21:31;;;;;;;10.15;2.92;;;9.20;98.30;;;;;;6103945;23;20026;-85
2023/12/10 04:23:57;;;;;;;10.75;2.13;;;9.20;98.30;;;;;;6101846;23;20090;-86
2023/12/10 04:26:23;;;;;;;7.63;1.92;;;9.20;98.60;;;;;;6102473;23;20475;-84
2023/12/10 04:28:49;;;;;;;10.13;2.10;;;9.20;98.40;;;;;;6105876;23;20033;-85
2023/12/10 04:31:15;;;;;;;10.23;2.00;;;9.20;98.30;;;;;;6105481;23;20006;-83
2023/12/10 04:33:44;;;;;;;16.58;2.67;;;9.10;98.30;;;;;;6105931;23;20006;-86
2023/12/10 04:36:11;;;;;;;10.88;1.92;;;9.20;98.40;;;;;;6131099;23;20006;-84
2023/12/10 04:38:37;;;;;;;12.13;2.03;;;9.20;98.40;;;;;;6104598;23;20475;-84
2023/12/10 04:41:03;;;;;;;9.68;2.22;;;9.20;98.40;;;;;;6103452;23;20006;-84
2023/12/10 04:43:29;;;;;;;9.07;2.00;;;9.20;98.40;;;;;;6129919;23;20002;-82
2023/12/10 04:45:55;;;;;;;12.18;2.03;;;9.20;98.40;;;;;;6132840;23;20081;-87
2023/12/10 04:48:21;;;;;;;9.93;2.00;;;9.20;98.40;;;;;;6105732;23;20017;-83
2023/12/10 04:50:47;;;;;;;8.43;1.95;;;9.20;98.40;;;;;;6130896;23;20001;-85
2023/12/10 04:53:13;;;;;;;9.02;2.13;;;9.20;98.30;;;;;;6131965;23;20006;-85
2023/12/10 04:55:38;;;;;;;9.88;1.90;;;9.20;98.30;;;;;;6103769;23;20010;-83
2023/12/10 04:58:04;;;;;;;4.80;1.40;;;9.20;98.30;;;;;;6123363;23;20317;-84
2023/12/10 05:00:30;;;;;;;9.48;2.08;;;9.20;98.30;;;;;;6122397;23;19998;-84
2023/12/10 05:02:56;;;;;;;6.90;1.80;;;9.20;98.30;;;;;;6122477;23;19998;-82
2023/12/10 05:05:21;;;;;;;11.95;2.60;;;9.20;98.20;;;;;;6125569;23;20002;-82
2023/12/10 05:07:47;;;;;;;9.32;1.85;;;9.30;98.30;;;;;;6101002;23;20016;-83
2023/12/10 05:10:12;;;;;;;13.93;2.85;;;9.30;98.20;;;;;;6101423;23;20006;-82
2023/12/10 05:12:38;;;;;;;10.90;1.77;;;9.30;98.00;;;;;;6100860;23;20033;-82
2023/12/10 05:15:04;;;;;;;7.95;2.13;;;9.30;97.90;;;;;;6103131;23;20006;-81
2023/12/10 05:17:30;;;;;;;12.80;2.42;;;9.30;97.90;;;;;;6102411;23;20001;-83
2023/12/10 05:19:56;;;;;;;8.00;1.85;;;9.30;97.90;;;;;;6102890;23;20002;-85
2023/12/10 05:22:22;;;;;;;9.50;2.15;;;9.30;97.90;;;;;;6103871;23;20005;-82
2023/12/10 05:24:48;;;;;;;13.13;2.28;;;9.30;97.80;;;;;;6104647;23;20041;-84
2023/12/10 05:27:14;;;;;;;13.43;2.30;;;9.30;97.80;;;;;;6098121;23;20017;-84
2023/12/10 05:29:39;;;;;;;8.90;1.80;;;9.30;97.70;;;;;;6099817;23;20010;-83
2023/12/10 05:32:05;;;;;;;12.13;2.03;;;9.30;97.70;;;;;;6100069;23;20017;-81
2023/12/10 05:34:31;;;;;;;10.27;2.53;;;9.40;97.60;;;;;;6099552;23;20006;-84
2023/12/10 05:36:57;;;;;;;8.50;1.75;;;9.30;97.50;;;;;;6097382;23;20034;-82
2023/12/10 05:39:23;;;;;;;9.23;1.70;;;9.40;97.40;;;;;;6097450;23;20093;-85
2023/12/10 05:41:49;;;;;;;10.18;2.10;;;9.40;97.30;;;;;;6099321;23;19999;-81
2023/12/10 05:44:15;;;;;;;12.70;2.40;;;9.40;97.30;;;;;;6097962;23;20013;-82
2023/12/10 05:46:40;;;;;;;10.73;2.15;;;9.40;97.10;;;;;;6097912;23;20006;-85
2023/12/10 05:49:06;;;;;;;9.52;1.70;;;9.40;97.00;;;;;;6096127;23;20069;-82
2023/12/10 05:51:31;;;;;;;7.07;1.70;;;9.40;96.90;;;;;;6102246;23;20007;-84
2023/12/10 05:53:57;;;;;;;9.95;2.15;;;9.40;96.90;;;;;;6099113;23;20021;-84
2023/12/10 05:56:23;;;;;;;7.85;1.60;;;9.50;96.80;;;;;;6099461;23;20010;-84
2023/12/10 05:58:49;;;;;;;10.23;2.20;;;9.50;96.80;;;;;;6102867;23;20002;-83
2023/12/10 06:01:14;;;;;;;12.38;1.85;;;9.50;96.70;;;;;;6100951;23;20010;-84
2023/12/10 06:03:40;;;;;;;7.57;1.95;;;9.50;96.70;;;;;;6099971;23;20428;-85
2023/12/10 06:06:06;;;;;;;14.05;2.20;;;9.50;96.60;;;;;;6098602;23;20030;-84
2023/12/10 06:08:32;;;;;;;11.00;2.58;;;9.50;96.40;;;;;;6098744;23;20298;-84
2023/12/10 06:10:57;;;;;;;7.95;1.60;;;9.50;96.40;;;;;;6099396;23;20006;-86
2023/12/10 06:13:23;;;;;;;12.25;1.98;;;9.50;96.30;;;;;;6099405;23;20051;-84
2023/12/10 06:15:49;;;;;;;10.57;2.50;;;9.50;96.10;;;;;;6100031;23;20002;-83
2023/12/10 06:18:14;;;;;;;11.90;2.10;;;9.50;96.00;;;;;;6099080;23;20002;-85
2023/12/10 06:20:40;;;;;;;6.68;1.35;;;9.50;96.00;;;;;;6099773;23;20322;-86
2023/12/10 06:23:06;;;;;;;13.05;2.35;;;9.50;95.70;;;;;;6099449;23;20003;-83
2023/12/10 06:25:31;;;;;;;11.85;2.13;;;9.50;96.00;;;;;;6099578;23;20453;-85
2023/12/10 06:27:57;;;;;;;14.18;2.00;;;9.60;95.70;;;;;;6097866;23;20018;-84
2023/12/10 06:30:23;;;;;;;10.25;2.28;;;9.60;95.50;;;;;;6098787;23;20002;-84
2023/12/10 06:32:49;;;;;;;8.13;2.40;;;9.60;95.50;;;;;;6097687;23;20073;-80
2023/12/10 06:35:15;;;;;;;11.27;2.25;;;9.60;95.20;;;;;;6098528;23;20029;-84
2023/12/10 06:37:41;;;;;;;10.65;1.92;;;9.50;95.20;;;;;;6098677;23;20451;-84
2023/12/10 06:40:07;;;;;;;12.98;2.20;;;9.50;95.20;;;;;;6101548;23;20007;-84
2023/12/10 06:42:34;;;;;;;11.30;2.25;;;9.50;95.20;;;;;;6109632;23;20058;-85
2023/12/10 06:45:00;;;;;;;9.20;2.00;;;9.50;95.20;;;;;;6104931;23;19998;-84
2023/12/10 06:47:26;;;;;;;11.45;2.40;;;9.40;95.20;;;;;;6100607;23;20066;-83
2023/12/10 06:49:51;;;;;;;10.98;2.17;;;9.40;95.30;;;;;;6100870;23;20010;-85
2023/12/10 06:52:17;;;;;;;8.75;1.88;;;9.40;95.30;;;;;;6100274;23;20041;-87
2023/12/10 06:54:43;;;;;;;8.23;1.83;;;9.40;95.40;;;;;;6099478;23;20007;-87
2023/12/10 06:57:09;;;;;;;9.95;1.90;;;9.40;95.40;;;;;;6099954;23;20072;-85
2023/12/10 06:59:35;;;;;;;11.10;2.25;;;9.40;95.30;;;;;;6098962;23;20459;-82
2023/12/10 07:02:00;;;;;;;7.82;1.95;;;9.40;95.30;;;;;;6102112;23;20034;-83
2023/12/10 07:04:26;;;;;;;10.77;2.03;;;9.40;95.30;;;;;;6113877;23;20058;-84
2023/12/10 07:06:51;;;;;;;10.10;2.92;;;9.40;95.40;;;;;;6107487;23;20003;-84
2023/12/10 07:09:17;;;;;;;8.45;1.92;;;9.40;95.40;;;;;;6105605;23;20010;-83
2023/12/10 07:11:43;;;;;;;11.55;2.13;;;9.40;95.30;;;;;;6108167;23;20054;-85
2023/12/10 07:14:08;;;;;;;5.57;1.60;;;9.40;95.30;;;;;;6105732;23;20007;-86
2023/12/10 07:16:34;;;;;;;9.07;2.05;;;9.40;95.30;;;;;;6101707;23;20013;-85
2023/12/10 07:19:00;;;;;;;11.38;2.25;;;9.50;95.30;;;;;;6097259;23;20025;-85
2023/12/10 07:21:25;;;;;;;6.03;1.55;;;9.50;95.30;;;;;;6098704;23;20086;-84
2023/12/10 07:23:51;;;;;;;6.63;1.60;;;9.50;95.30;;;;;;6098739;23;20006;-87
2023/12/10 07:26:24;;;;;;;8.18;1.70;;;9.60;95.20;;;;;;6098764;23;20448;-81
2023/12/10 07:29:13;;;;;;;8.02;1.60;;;9.50;94.90;;;;;;6102177;23;20014;-82
2023/12/10 07:31:44;;;;;;;11.30;1.92;;;9.60;94.90;;;;;;6104457;23;20003;-81
2023/12/10 07:34:45;;;;;;;9.88;1.90;;;9.60;94.80;;;;;;6102977;23;20070;-83
2023/12/10 07:37:21;;;;;;;8.65;1.83;;;9.60;94.80;;;;;;6100351;23;20017;-84
2023/12/10 07:39:46;;;;;;;10.93;2.25;;;9.70;94.60;;;;;;6105128;23;20006;-83
2023/12/10 07:42:12;;;;;;;11.10;2.10;;;9.70;94.30;;;;;;6096179;23;19999;-79
2023/12/10 07:44:37;;;;;;;7.25;1.65;;;9.70;94.30;;;;;;6096307;23;20396;-79
2023/12/10 07:47:03;;;;;;;8.10;1.73;;;9.80;94.20;;;;;;6093251;23;20013;-79
2023/12/10 07:49:29;;;;;;;7.63;1.55;;;9.80;94.20;;;;;;6093729;23;20013;-80
2023/12/10 07:51:55;;;;;;;8.32;1.40;;;9.80;94.10;;;;;;6093453;23;20037;-77
2023/12/10 07:54:21;;;;;;;12.02;1.92;;;9.80;94.10;;;;;;6093673;23;20017;-79
2023/12/10 07:56:46;;;;;;;12.85;1.88;;;9.80;94.00;;;;;;6093343;23;20002;-77
2023/12/10 07:59:12;;;;;;;10.10;2.17;;;9.80;93.90;;;;;;6095152;23;20636;-80
2023/12/10 08:01:38;;;;;;;10.10;2.08;;;9.80;93.80;;;;;;6093918;23;20445;-79
2023/12/10 08:04:04;;;;;;;9.40;2.03;;;9.80;93.90;;;;;;6095706;23;20050;-79
2023/12/10 08:06:30;;;;;;;7.45;1.40;;;9.80;93.80;;;;;;6094343;23;20356;-78
2023/12/10 08:08:55;;;;;;;7.15;1.52;;;9.80;93.70;;;;;;6093983;23;20078;-79
2023/12/10 08:11:21;;;;;;;10.00;2.00;;;9.80;93.60;;;;;;6095219;23;20278;-79
2023/12/10 08:13:47;;;;;;;7.30;1.63;;;9.90;93.60;;;;;;6096082;23;20094;-79
2023/12/10 08:16:14;;;;;;;12.57;2.55;;;9.90;93.40;;;;;;6097130;23;20475;-79
2023/12/10 08:18:40;;;;;;;14.05;2.65;;;9.90;93.40;;;;;;6095489;23;20292;-80
2023/12/10 08:21:05;;;;;;;9.20;2.13;;;9.90;93.30;;;;;;6096554;23;20003;-79
2023/12/10 08:23:31;;;;;;;8.55;2.25;;;9.90;93.30;;;;;;6096318;23;20006;-77
2023/12/10 08:25:56;;;;;;;9.65;1.90;;;9.90;93.50;;;;;;6095638;23;20016;-79
2023/12/10 08:28:22;;;;;;;16.88;2.50;;;9.90;93.10;;;;;;6093072;23;20007;-78
2023/12/10 08:30:48;;;;;;;5.78;1.50;;;9.90;93.00;;;;;;6096238;23;20369;-79
2023/12/10 08:33:13;;;;;;;6.72;1.45;;;9.90;92.90;;;;;;6094484;23;20002;-79
2023/12/10 08:35:39;;;;;;;6.28;1.70;;;9.90;92.90;;;;;;6096200;23;20038;-79
2023/12/10 08:38:05;;;;;;;5.97;1.58;;;9.90;92.90;;;;;;6093016;23;20452;-79
2023/12/10 08:40:31;;;;;;;7.05;1.63;;;9.90;92.80;;;;;;6094184;23;20058;-78
2023/12/10 08:42:56;;;;;;;8.90;1.70;;;9.90;92.70;;;;;;6096616;23;19998;-79
2023/12/10 08:45:22;;;;;;;12.32;2.08;;;9.90;92.70;;;;;;6095630;23;20006;-79
2023/12/10 08:47:48;;;;;;;8.50;1.75;;;9.90;92.60;;;;;;6100656;23;20011;-78
2023/12/10 08:50:14;;;;;;;5.10;1.52;;;9.90;92.70;;;;;;6101717;23;20018;-80
2023/12/10 08:52:40;;;;;;;7.65;1.65;;;9.90;92.50;;;;;;6097160;23;20002;-80
2023/12/10 08:55:06;;;;;;;7.82;1.85;;;9.90;92.50;;;;;;6092699;23;20087;-79
2023/12/10 08:57:31;;;;;;;13.02;2.10;;;10.00;92.50;;;;;;6093095;23;20392;-79
2023/12/10 09:00:00;;;;;;;7.20;1.83;;;9.90;92.30;;;;;;6093418;23;20006;-79
2023/12/10 09:02:26;;;;;;;5.82;1.30;;;9.90;92.30;;;;;;6091966;23;20058;-79
2023/12/10 09:04:52;;;;;;;8.82;1.30;;;10.00;92.40;;;;;;6093628;23;20022;-79
2023/12/10 09:07:17;;;;;;;8.00;1.95;;;9.90;92.20;;;;;;6093259;23;20013;-79
2023/12/10 09:09:43;;;;;;;6.00;1.40;;;10.00;92.30;;;;;;6094269;23;20078;-78
2023/12/10 09:12:09;;;;;;;8.77;1.90;;;10.00;92.30;;;;;;6092302;23;20037;-80
2023/12/10 09:14:36;;;;;;;8.32;1.67;;;10.00;92.20;;;;;;6099499;23;20047;-79
2023/12/10 09:17:01;;;;;;;11.50;1.75;;;10.00;92.20;;;;;;6106691;23;20344;-79
2023/12/10 09:19:29;;;;;;;11.57;1.92;;;10.00;92.20;;;;;;6101442;23;20050;-78
2023/12/10 09:21:55;;;;;;;8.88;1.70;;;10.00;92.20;;;;;;6095688;23;20369;-79
2023/12/10 09:24:22;;;;;;;8.48;1.63;;;10.00;92.00;;;;;;6096899;23;20002;-78
2023/12/10 09:26:48;;;;;;;7.43;1.50;;;10.00;92.00;;;;;;6102212;23;20005;-76
2023/12/10 09:29:13;;;;;;;8.43;1.98;;;10.00;92.00;;;;;;6125177;23;20017;-78
2023/12/10 09:31:39;;;;;;;10.13;1.90;;;10.10;91.90;;;;;;6099133;23;20006;-79
2023/12/10 09:34:05;;;;;;;6.53;1.40;;;10.10;91.90;;;;;;6125298;23;20009;-79
2023/12/10 09:36:30;;;;;;;9.30;1.85;;;10.10;91.90;;;;;;6098431;23;20016;-77
2023/12/10 09:38:56;;;;;;;7.35;1.70;;;10.10;91.80;;;;;;6123843;23;19998;-78
2023/12/10 09:41:21;;;;;;;6.97;1.50;;;10.10;91.70;;;;;;6098127;23;20454;-79
2023/12/10 09:43:47;;;;;;;5.80;1.40;;;10.10;91.70;;;;;;6095500;23;20415;-78
2023/12/10 09:46:14;;;;;;;4.78;1.40;;;10.20;91.60;;;;;;6121571;23;20009;-76
2023/12/10 09:48:41;;;;;;;6.07;1.50;;;10.20;91.70;;;;;;6098476;23;20437;-78
2023/12/10 09:51:07;;;;;;;5.25;1.55;;;10.20;91.70;;;;;;6123014;23;20454;-79
2023/12/10 09:53:33;;;;;;;8.07;1.45;;;10.20;91.60;;;;;;6098539;23;19998;-79
2023/12/10 09:55:59;;;;;;;6.70;1.52;;;10.30;91.60;;;;;;6125084;23;20005;-78
2023/12/10 09:58:25;;;;;;;5.30;1.10;;;10.30;91.60;;;;;;6097344;23;20013;-78
2023/12/10 10:00:50;;;;;;;7.63;1.75;;;10.30;91.60;;;;;;6119051;23;20002;-78
2023/12/10 10:03:18;;;;;;;6.95;1.58;;;10.30;91.40;;;;;;6094749;23;20006;-78
2023/12/10 10:05:43;;;;;;;6.45;1.40;;;10.30;91.40;;;;;;6121028;23;20436;-77
2023/12/10 10:08:09;;;;;;;7.63;1.63;;;10.30;91.20;;;;;;6094712;23;20067;-78
2023/12/10 10:10:35;;;;;;;5.30;2.03;;;10.40;91.20;;;;;;6093364;23;20014;-77
2023/12/10 10:13:00;;;;;;;5.40;1.50;;;10.40;91.20;;;;;;6122134;23;20021;-79
2023/12/10 10:15:30;;;;;;;9.35;1.50;;;10.40;91.20;;;;;;6096394;23;20041;-79
2023/12/10 10:17:57;;;;;;;7.25;1.58;;;10.40;91.10;;;;;;6119384;23;20006;-77
2023/12/10 10:20:24;;;;;;;7.40;1.45;;;10.40;91.00;;;;;;6121894;23;20061;-78
2023/12/10 10:22:50;;;;;;;10.07;1.58;;;10.40;91.00;;;;;;6097608;23;20451;-79
2023/12/10 10:25:17;;;;;;;4.05;1.17;;;10.40;91.00;;;;;;6124604;23;20002;-79
2023/12/10 10:27:42;;;;;;;6.07;1.33;;;10.50;91.10;;;;;;6093248;23;20046;-77
2023/12/10 10:30:08;;;;;;;7.53;1.88;;;10.50;91.00;;;;;;6095496;23;20010;-79
2023/12/10 10:32:34;;;;;;;5.45;1.13;;;10.50;90.80;;;;;;6097517;23;20078;-78
2023/12/10 10:35:04;;;;;;;4.40;1.33;;;10.50;90.90;;;;;;6096334;23;20057;-79
2023/12/10 10:37:30;;;;;;;3.88;0.90;;;10.50;90.90;;;;;;6093885;23;20010;-80
2023/12/10 10:39:56;;;;;;;6.25;1.35;;;10.50;91.00;;;;;;6096323;23;20003;-77
2023/12/10 10:42:22;;;;;;;6.97;1.33;;;10.50;91.00;;;;;;6093078;23;20005;-79
2023/12/10 10:44:48;;;;;;;4.18;1.00;;;10.50;91.00;;;;;;6095054;23;20002;-77
2023/12/10 10:47:15;;;;;;;7.32;1.50;;;10.40;91.00;;;;;;6093796;23;20006;-79
2023/12/10 10:49:55;;;;;;;5.10;1.30;;;10.50;91.00;;;;;;6096159;23;20432;-78
2023/12/10 10:52:24;;;;;;;5.07;2.03;;;10.50;90.90;;;;;;6096430;23;20007;-79
2023/12/10 10:54:53;;;;;;;6.47;1.30;;;10.50;91.10;;;;;;6096674;23;20002;-79
2023/12/10 10:57:36;;;;;;;6.03;1.25;;;10.50;91.10;;;;;;6094563;23;20006;-79
2023/12/10 11:00:17;;;;;;;8.38;1.73;;;10.50;91.10;;;;;;6095141;23;20002;-78
2023/12/10 11:02:43;;;;;;;7.57;1.40;;;10.50;91.00;;;;;;6096100;23;20002;-78
2023/12/10 11:05:08;;;;;;;4.72;1.42;;;10.40;91.00;;;;;;6095329;23;20809;-77
2023/12/10 11:07:34;;;;;;;6.43;1.42;;;10.50;91.00;;;;;;6095370;23;20013;-78
2023/12/10 11:10:02;;;;;;;3.45;1.15;;;10.50;91.10;;;;;;6095626;23;20461;-78
2023/12/10 11:12:40;;;;;;;6.80;1.60;;;10.50;91.00;;;;;;6094568;23;20093;-79
2023/12/10 11:15:27;;;;;;;7.22;1.60;;;10.60;90.90;;;;;;6096049;23;20057;-80
2023/12/10 11:17:57;;;;;;;12.50;2.10;;;10.60;90.70;;;;;;6094678;23;20002;-77
2023/12/10 11:20:33;;;;;;;5.10;1.20;;;10.60;90.70;;;;;;6094056;23;20022;-76
2023/12/10 11:23:03;;;;;;;7.90;1.45;;;10.60;90.80;;;;;;6095940;23;20055;-78
2023/12/10 11:25:29;;;;;;;5.22;1.40;;;10.60;90.70;;;;;;6094904;23;20074;-79
2023/12/10 11:27:57;;;;;;;6.18;1.52;;;10.70;90.70;;;;;;6094315;23;20014;-78
2023/12/10 11:30:23;;;;;;;3.83;1.02;;;10.70;90.50;;;;;;6092810;23;20013;-77
2023/12/10 11:32:49;;;;;;;5.18;1.17;;;10.70;90.40;;;;;;6096151;23;20026;-78
2023/12/10 11:35:14;;;;;;;10.38;1.63;;;10.70;90.50;;;;;;6095526;23;20002;-79
2023/12/10 11:37:43;;;;;;;10.60;1.50;;;10.80;90.50;;;;;;6093954;23;20402;-77
2023/12/10 11:40:10;;;;;;;6.00;1.27;;;10.80;90.50;;;;;;6094280;23;20009;-77
2023/12/10 11:42:35;;;;;;;7.32;1.77;;;10.80;90.50;;;;;;6101615;23;20441;-78
2023/12/10 11:45:02;;;;;;;6.63;1.42;;;10.90;90.50;;;;;;6099150;23;20017;-78
2023/12/10 11:47:28;;;;;;;8.18;1.40;;;10.90;90.40;;;;;;6095175;23;20416;-80
2023/12/10 11:49:57;;;;;;;5.70;1.33;;;10.90;90.40;;;;;;6096453;23;20007;-77
2023/12/10 11:52:23;;;;;;;5.30;1.63;;;10.90;90.40;;;;;;6095687;23;20014;-78
2023/12/10 11:54:49;;;;;;;5.20;1.60;;;11.00;90.30;;;;;;6095999;23;20466;-78
2023/12/10 11:57:16;;;;;;;7.05;1.20;;;11.00;90.40;;;;;;6095659;23;20026;-78
2023/12/10 11:59:47;;;;;;;5.70;1.45;;;11.00;90.40;;;;;;6094116;23;19998;-78
2023/12/10 12:02:17;;;;;;;4.82;1.20;;;11.00;90.40;;;;;;6095352;23;20026;-78
2023/12/10 12:04:43;;;;;;;3.45;1.35;;;11.10;90.40;;;;;;6096042;23;19998;-79
2023/12/10 12:07:41;;;;;;;4.55;1.38;;;11.20;90.40;;;;;;6096207;23;20215;-78
2023/12/10 12:10:09;;;;;;;4.85;1.10;;;11.30;90.40;;;;;;6032158;23;20022;-78
2023/12/10 12:12:39;;;;;;;1.52;0.90;;;11.30;90.30;;;;;;6096713;23;20731;-79
2023/12/10 12:15:05;;;;;;;5.47;1.38;;;11.30;90.30;;;;;;6095142;23;20013;-77
2023/12/10 12:17:31;;;;;;;6.63;1.00;;;11.30;90.30;;;;;;6093283;23;20546;-78
2023/12/10 12:20:12;;;;;;;5.03;1.10;;;11.20;90.40;;;;;;6095684;23;20010;-80
2023/12/10 12:22:38;;;;;;;4.60;1.00;;;11.30;90.50;;;;;;6096583;23;20010;-78
2023/12/10 12:25:05;;;;;;;5.00;1.20;;;11.20;90.30;;;;;;6095762;23;20082;-79
2023/12/10 12:27:31;;;;;;;6.20;1.33;;;11.30;90.30;;;;;;6110262;23;20336;-79
2023/12/10 12:29:56;;;;;;;4.18;1.00;;;11.30;90.40;;;;;;6124257;23;20067;-79
2023/12/10 12:32:22;;;;;;;3.58;1.05;;;11.30;90.40;;;;;;6123330;23;20002;-78
2023/12/10 12:34:47;;;;;;;1.98;0.80;;;11.30;90.40;;;;;;6098915;23;20016;-79
2023/12/10 12:37:13;;;;;;;6.00;1.10;;;11.30;90.50;;;;;;6097979;23;20032;-79
2023/12/10 12:39:38;;;;;;;3.47;0.93;;;11.30;90.40;;;;;;6125503;23;19998;-78
2023/12/10 12:42:04;;;;;;;2.22;0.80;;;11.30;90.50;;;;;;6100192;23;20002;-79
2023/12/10 12:44:30;;;;;;;4.25;1.17;;;11.30;90.50;;;;;;6099331;23;20028;-80
2023/12/10 12:46:56;;;;;;;4.22;1.30;;;11.30;90.50;;;;;;6098560;23;20438;-79